Time;durP1;ratioP1;P1;durP2;ratioP2;P2;SDS_P1;SDS_P2;PMS_P1;PMS_P2;Temp;Humidity;BMP_temperature;BMP_pressure;BME280_temperature;BME280_humidity;BME280_pressure;Samples;Min_cycle;Max_cycle;Signal;HPM_P1;HPM_P2
2022/08/31 00:04:41;;;;;;;6.18;5.57;;;;;;;16.27;89.94;101146.78;4993049;28;20088;-75
2022/08/31 00:07:07;;;;;;;6.18;5.47;;;;;;;16.29;89.55;101148.53;4993275;28;20030;-75
2022/08/31 00:09:33;;;;;;;7.63;5.95;;;;;;;16.30;89.47;101142.31;4993541;28;20030;-75
2022/08/31 00:11:59;;;;;;;5.80;5.30;;;;;;;16.27;89.79;101138.81;4993187;28;20504;-75
2022/08/31 00:14:24;;;;;;;5.93;5.28;;;;;;;16.25;89.87;101135.31;4993161;28;20046;-75
2022/08/31 00:16:49;;;;;;;6.20;5.70;;;;;;;16.26;89.36;101145.06;4992800;28;20121;-75
2022/08/31 00:19:15;;;;;;;5.15;4.70;;;;;;;16.32;88.81;101144.91;4992007;28;20117;-75
2022/08/31 00:21:40;;;;;;;5.63;5.13;;;;;;;16.27;89.28;101145.03;4993084;28;20042;-75
2022/08/31 00:24:06;;;;;;;6.20;5.70;;;;;;;16.27;88.65;101141.47;4993235;28;20058;-75
2022/08/31 00:26:31;;;;;;;7.63;5.78;;;;;;;16.22;88.87;101138.91;4993267;28;20528;-75
2022/08/31 00:28:57;;;;;;;7.20;5.80;;;;;;;16.21;88.73;101138.00;4991658;28;20416;-75
2022/08/31 00:31:22;;;;;;;5.80;5.25;;;;;;;16.20;88.62;101141.59;4992879;28;20033;-74
2022/08/31 00:33:51;;;;;;;5.45;4.95;;;;;;;16.17;88.84;101141.66;4993057;28;20038;-75
2022/08/31 00:36:20;;;;;;;6.55;5.95;;;;;;;16.11;89.02;101140.88;4988583;28;20034;-75
2022/08/31 00:38:47;;;;;;;6.47;5.38;;;;;;;16.07;89.29;101140.09;4991655;28;20042;-75
2022/08/31 00:41:13;;;;;;;6.07;5.10;;;;;;;16.06;88.95;101146.34;4992661;28;20181;-75
2022/08/31 00:44:09;;;;;;;6.60;5.35;;;;;;;16.03;89.28;101143.69;4991614;28;20041;-75
2022/08/31 00:46:39;;;;;;;5.57;5.13;;;;;;;15.94;90.46;101139.44;4985705;28;20405;-75
2022/08/31 00:49:08;;;;;;;6.22;5.72;;;;;;;15.92;90.57;101140.38;4992647;28;20042;-75
2022/08/31 00:51:45;;;;;;;5.38;4.70;;;;;;;15.89;90.88;101143.97;4990893;28;20516;-75
2022/08/31 00:54:12;;;;;;;6.45;5.65;;;;;;;15.86;90.19;101141.38;4992325;28;20165;-75
2022/08/31 00:56:40;;;;;;;5.88;5.38;;;;;;;15.89;90.06;101140.44;4987290;28;20570;-75
2022/08/31 00:59:05;;;;;;;6.47;5.82;;;;;;;15.90;89.89;101140.41;4992568;28;20516;-75
2022/08/31 01:01:31;;;;;;;5.78;5.28;;;;;;;15.88;90.51;101138.69;4991079;28;20038;-75
2022/08/31 01:03:58;;;;;;;6.72;4.93;;;;;;;15.89;90.76;101135.97;4991141;28;20038;-74
2022/08/31 01:06:24;;;;;;;6.32;5.72;;;;;;;15.89;90.15;101140.44;4987529;28;20042;-75
2022/08/31 01:08:50;;;;;;;6.10;5.50;;;;;;;15.91;89.96;101138.63;4992415;28;20089;-75
2022/08/31 01:11:18;;;;;;;8.07;5.97;;;;;;;15.89;90.14;101145.75;4992105;28;20044;-75
2022/08/31 01:13:46;;;;;;;5.78;4.65;;;;;;;15.85;90.62;101139.63;4990673;28;20129;-75
2022/08/31 01:16:24;;;;;;;6.10;5.60;;;;;;;15.83;91.06;101130.78;4990905;28;20085;-75
2022/08/31 01:18:55;;;;;;;5.65;5.15;;;;;;;15.84;90.83;101137.84;4990897;28;20413;-75
2022/08/31 01:21:25;;;;;;;5.68;5.28;;;;;;;15.83;90.90;101140.56;4992288;28;20160;-75
2022/08/31 01:23:53;;;;;;;5.82;5.32;;;;;;;15.84;90.93;101129.00;5001863;28;20030;-75
2022/08/31 01:26:22;;;;;;;6.47;5.63;;;;;;;15.86;91.03;101135.16;4992023;28;20497;-75
2022/08/31 01:28:51;;;;;;;5.43;5.03;;;;;;;15.86;91.06;101132.50;4992170;28;20512;-75
2022/08/31 01:31:30;;;;;;;5.82;5.20;;;;;;;15.86;91.30;101140.50;4991799;28;20113;-75
2022/08/31 01:33:56;;;;;;;7.82;5.70;;;;;;;15.88;90.89;101130.69;4990662;28;20074;-75
2022/08/31 01:36:22;;;;;;;5.60;5.10;;;;;;;15.89;90.85;101140.44;4991587;28;20121;-75
2022/08/31 01:38:47;;;;;;;6.15;5.65;;;;;;;15.90;90.84;101132.44;4991864;28;20200;-75
2022/08/31 01:41:12;;;;;;;6.00;5.50;;;;;;;15.93;90.96;101136.81;4992024;28;20038;-75
2022/08/31 01:43:38;;;;;;;5.95;5.35;;;;;;;15.88;91.59;101128.03;4990194;28;20481;-75
2022/08/31 01:46:08;;;;;;;5.22;4.78;;;;;;;15.87;91.46;101126.25;4989988;28;20203;-75
2022/08/31 01:48:34;;;;;;;7.15;5.32;;;;;;;15.83;91.45;101121.91;4992180;28;20058;-75
2022/08/31 01:51:01;;;;;;;5.75;5.25;;;;;;;15.86;91.18;101125.41;4990605;28;20035;-75
2022/08/31 01:53:27;;;;;;;5.45;5.05;;;;;;;15.88;90.94;101128.03;4989828;28;20045;-74
2022/08/31 01:55:53;;;;;;;6.38;5.78;;;;;;;15.89;90.81;101129.78;4990329;28;20046;-75
2022/08/31 01:58:18;;;;;;;5.25;4.75;;;;;;;15.90;90.56;101128.88;4990531;28;20053;-75
2022/08/31 02:01:03;;;;;;;6.13;5.53;;;;;;;15.92;90.66;101124.41;4988906;28;20057;-75
2022/08/31 02:03:29;;;;;;;6.53;5.82;;;;;;;15.96;90.69;101123.44;4989938;28;20030;-75
2022/08/31 02:05:54;;;;;;;6.72;6.13;;;;;;;16.04;89.98;101118.84;4990446;28;20085;-75
2022/08/31 02:08:20;;;;;;;7.40;6.70;;;;;;;16.06;90.04;101125.03;4990755;28;20040;-75
2022/08/31 02:10:46;;;;;;;6.07;5.57;;;;;;;16.07;90.00;101133.88;4990396;28;20031;-75
2022/08/31 02:13:12;;;;;;;8.23;5.53;;;;;;;16.06;89.54;101129.44;4990039;28;20045;-75
2022/08/31 02:15:38;;;;;;;7.07;6.20;;;;;;;16.08;89.45;101125.84;4990173;28;20038;-75
2022/08/31 02:18:04;;;;;;;5.47;4.97;;;;;;;16.08;89.47;101123.19;4990339;28;20076;-75
2022/08/31 02:20:29;;;;;;;7.60;5.68;;;;;;;16.09;89.24;101119.63;4991647;28;20031;-75
2022/08/31 02:22:55;;;;;;;5.80;5.25;;;;;;;16.08;89.04;101123.19;4990124;28;20084;-75
2022/08/31 02:25:20;;;;;;;6.00;5.40;;;;;;;16.05;89.07;101120.59;4992574;28;20038;-75
2022/08/31 02:27:46;;;;;;;6.45;4.93;;;;;;;16.00;88.95;101118.00;4995307;28;20038;-75
2022/08/31 02:30:15;;;;;;;6.38;5.68;;;;;;;15.92;89.77;101119.94;4994143;28;20062;-75
2022/08/31 02:32:41;;;;;;;6.72;6.22;;;;;;;15.91;89.65;101123.53;4995013;28;20042;-75
2022/08/31 02:35:08;;;;;;;5.57;5.07;;;;;;;15.84;90.43;101115.69;4991068;28;20072;-75
2022/08/31 02:37:34;;;;;;;6.05;5.55;;;;;;;15.78;90.40;101122.88;4995142;28;20522;-74
2022/08/31 02:40:00;;;;;;;6.43;5.82;;;;;;;15.74;91.08;101118.50;4992117;28;20033;-75
2022/08/31 02:42:25;;;;;;;6.63;5.53;;;;;;;15.67;91.31;101119.50;4992850;28;20034;-75
2022/08/31 02:44:50;;;;;;;5.80;5.18;;;;;;;15.60;91.61;101115.19;4993802;28;20637;-75
2022/08/31 02:47:16;;;;;;;7.00;6.40;;;;;;;15.55;92.16;101111.72;4993813;28;20034;-75
2022/08/31 02:49:56;;;;;;;9.50;5.97;;;;;;;15.51;92.20;101112.66;4986023;28;20026;-75
2022/08/31 02:52:22;;;;;;;6.93;5.82;;;;;;;15.42;92.83;101113.72;4991526;28;20030;-75
2022/08/31 02:54:48;;;;;;;6.50;6.00;;;;;;;15.39;92.79;101108.44;4993273;28;20521;-75
2022/08/31 02:57:13;;;;;;;5.82;5.28;;;;;;;15.33;92.79;101117.41;4994930;28;20053;-75
2022/08/31 02:59:38;;;;;;;6.45;5.93;;;;;;;15.31;92.67;101113.03;4993513;28;20046;-75
2022/08/31 03:02:05;;;;;;;6.75;5.82;;;;;;;15.29;92.70;101113.03;4989416;28;20030;-74
2022/08/31 03:04:32;;;;;;;8.38;6.15;;;;;;;15.28;92.93;101116.59;4993448;28;20472;-75
2022/08/31 03:06:57;;;;;;;6.57;5.97;;;;;;;15.23;93.55;101113.16;4990325;28;20041;-75
2022/08/31 03:09:23;;;;;;;6.90;6.07;;;;;;;15.22;93.36;101108.75;4992777;28;20064;-75
2022/08/31 03:11:48;;;;;;;7.45;6.60;;;;;;;15.20;93.39;101115.84;4994294;28;20065;-75
2022/08/31 03:14:14;;;;;;;15.00;5.60;;;;;;;15.21;92.79;101119.38;4993212;28;20069;-75
2022/08/31 03:16:40;;;;;;;5.90;5.40;;;;;;;15.18;93.53;101115.00;4993077;28;20039;-75
2022/08/31 03:19:07;;;;;;;6.50;5.47;;;;;;;15.15;92.88;101117.72;4993104;28;20030;-75
2022/08/31 03:21:34;;;;;;;7.15;5.57;;;;;;;15.12;93.29;101115.97;4992815;28;20077;-75
2022/08/31 03:24:00;;;;;;;6.80;6.20;;;;;;;15.12;92.82;101125.75;4994400;28;20039;-75
2022/08/31 03:26:26;;;;;;;5.78;5.28;;;;;;;15.11;93.02;101118.66;4993086;28;20054;-75
2022/08/31 03:28:54;;;;;;;8.30;5.35;;;;;;;15.08;92.70;101118.69;4992676;28;20061;-75
2022/08/31 03:31:35;;;;;;;5.90;5.38;;;;;;;15.07;92.81;101119.63;4993191;28;20042;-75
2022/08/31 03:34:01;;;;;;;6.13;5.45;;;;;;;15.07;92.27;101117.81;4992671;28;20030;-75
2022/08/31 03:36:26;;;;;;;6.65;6.05;;;;;;;15.06;92.46;101115.19;4992457;28;20117;-75
2022/08/31 03:38:52;;;;;;;6.45;5.65;;;;;;;15.08;92.03;101121.34;4993863;28;20469;-75
2022/08/31 03:41:22;;;;;;;7.78;5.35;;;;;;;15.07;91.97;101122.28;4992469;28;20037;-74
2022/08/31 03:43:48;;;;;;;6.55;5.95;;;;;;;15.04;91.74;101124.97;4992212;28;20026;-75
2022/08/31 03:46:13;;;;;;;5.75;5.22;;;;;;;15.04;91.62;101122.31;4992402;28;20378;-75
2022/08/31 03:48:42;;;;;;;7.75;5.93;;;;;;;14.94;92.71;101129.56;4987092;28;20030;-75
2022/08/31 03:51:08;;;;;;;6.88;6.03;;;;;;;14.93;92.38;101127.78;4992377;28;20033;-75
2022/08/31 03:53:35;;;;;;;6.00;5.40;;;;;;;14.92;92.07;101130.47;4992297;28;20062;-75
2022/08/31 03:56:03;;;;;;;6.47;5.88;;;;;;;14.87;92.47;101123.44;4991517;28;20080;-75
2022/08/31 03:58:31;;;;;;;5.68;5.18;;;;;;;14.80;93.69;101135.06;4988541;28;20040;-75
2022/08/31 04:00:58;;;;;;;6.60;5.10;;;;;;;14.79;93.07;101129.75;4992243;28;20034;-75
2022/08/31 04:03:46;;;;;;;5.85;5.30;;;;;;;14.75;93.17;101136.91;4990493;28;20050;-75
2022/08/31 04:06:30;;;;;;;7.57;5.82;;;;;;;14.72;93.68;101142.25;4993576;28;20056;-75
2022/08/31 04:09:14;;;;;;;6.45;5.85;;;;;;;14.70;93.59;101144.06;4993376;28;20116;-75
2022/08/31 04:12:05;;;;;;;6.70;5.57;;;;;;;14.61;93.59;101145.03;4992441;28;20030;-75
2022/08/31 04:14:49;;;;;;;6.85;6.13;;;;;;;14.58;93.82;101144.22;4992528;28;20125;-75
2022/08/31 04:17:45;;;;;;;6.38;5.60;;;;;;;14.48;94.41;101141.63;4991884;28;20050;-75
2022/08/31 04:20:35;;;;;;;6.18;5.60;;;;;;;14.44;94.63;101153.19;4992234;28;20068;-75
2022/08/31 04:23:00;;;;;;;6.78;6.15;;;;;;;14.38;95.20;101158.59;5001991;28;20092;-75
2022/08/31 04:25:29;;;;;;;6.10;5.57;;;;;;;14.35;95.29;101153.28;4991532;28;20084;-75
2022/08/31 04:27:55;;;;;;;6.40;5.85;;;;;;;14.27;96.08;101160.47;4991672;28;20038;-75
2022/08/31 04:30:21;;;;;;;6.20;5.57;;;;;;;14.24;96.18;101166.69;4991862;28;20035;-75
2022/08/31 04:32:48;;;;;;;7.18;6.03;;;;;;;14.25;95.61;101156.94;4990301;28;20042;-76
2022/08/31 04:35:14;;;;;;;7.50;5.80;;;;;;;14.23;96.31;101164.09;4987269;28;20401;-76
2022/08/31 04:37:43;;;;;;;6.05;5.45;;;;;;;14.23;96.03;101164.09;4991504;28;20033;-76
2022/08/31 04:40:18;;;;;;;7.70;5.72;;;;;;;14.21;96.52;101161.44;4990961;28;20106;-76
2022/08/31 04:42:44;;;;;;;9.38;7.03;;;;;;;14.20;96.43;101164.09;4997830;28;20049;-76
2022/08/31 04:45:12;;;;;;;6.10;5.57;;;;;;;14.21;96.24;101160.56;4991168;28;20026;-75
2022/08/31 04:47:38;;;;;;;6.78;6.07;;;;;;;14.23;96.35;101166.72;4989654;28;20176;-76
2022/08/31 04:50:06;;;;;;;7.18;6.28;;;;;;;14.20;96.37;101156.13;4991341;28;20038;-75
2022/08/31 04:52:33;;;;;;;9.68;7.15;;;;;;;14.18;95.97;101161.47;4990710;28;20038;-76
2022/08/31 04:54:58;;;;;;;7.20;6.50;;;;;;;14.16;96.81;101160.59;4988840;28;20689;-75
2022/08/31 04:57:24;;;;;;;7.43;6.38;;;;;;;14.17;96.57;101154.41;4986844;28;20034;-75
2022/08/31 04:59:50;;;;;;;7.80;5.57;;;;;;;14.15;96.39;101161.50;4987941;28;20045;-75
2022/08/31 05:02:36;;;;;;;6.60;6.00;;;;;;;14.15;97.36;101161.50;4988676;28;20046;-75
2022/08/31 05:05:10;;;;;;;6.25;5.70;;;;;;;14.21;96.44;101156.13;4987824;28;20026;-75
2022/08/31 05:07:36;;;;;;;6.50;5.90;;;;;;;14.28;96.24;101156.03;4990963;28;20038;-75
2022/08/31 05:10:03;;;;;;;7.63;6.82;;;;;;;14.32;96.56;101153.34;4987476;28;20508;-75
2022/08/31 05:12:29;;;;;;;7.20;6.15;;;;;;;14.42;95.55;101155.00;4990727;28;20116;-75
2022/08/31 05:14:55;;;;;;;8.10;6.70;;;;;;;14.45;95.26;101162.03;4992135;28;20065;-75
2022/08/31 05:17:23;;;;;;;7.45;6.57;;;;;;;14.46;95.56;101161.13;4990852;28;20037;-75
2022/08/31 05:19:50;;;;;;;6.93;5.82;;;;;;;14.50;94.80;101173.50;4989930;28;20599;-75
2022/08/31 05:22:16;;;;;;;8.10;6.32;;;;;;;14.55;94.34;101181.44;5000314;28;20038;-75
2022/08/31 05:24:42;;;;;;;7.53;6.53;;;;;;;14.64;93.56;101176.00;4990705;28;20088;-75
2022/08/31 05:27:08;;;;;;;7.85;6.63;;;;;;;14.68;93.05;101183.06;4990908;28;20046;-75
2022/08/31 05:29:34;;;;;;;6.55;5.95;;;;;;;14.67;93.29;101183.94;4990796;28;20030;-75
2022/08/31 05:32:22;;;;;;;6.50;5.90;;;;;;;14.65;92.96;101186.63;4989952;28;20121;-75
2022/08/31 05:34:48;;;;;;;7.28;6.50;;;;;;;14.65;93.29;101183.09;4990440;28;20031;-75
2022/08/31 05:37:14;;;;;;;7.05;6.45;;;;;;;14.71;93.16;101188.31;4988997;28;20056;-75
2022/08/31 05:39:40;;;;;;;8.30;6.75;;;;;;;14.73;92.27;101196.28;4984923;28;20117;-75
2022/08/31 05:42:08;;;;;;;7.05;6.35;;;;;;;14.72;92.84;101198.03;4986238;28;20096;-75
2022/08/31 05:44:35;;;;;;;9.85;6.20;;;;;;;14.76;92.21;101194.44;4987294;28;20047;-75
2022/08/31 05:47:05;;;;;;;7.63;6.40;;;;;;;14.81;92.08;101195.28;4987924;28;20062;-75
2022/08/31 05:49:31;;;;;;;6.85;6.15;;;;;;;14.86;91.65;101193.44;4990629;28;20084;-75
2022/08/31 05:51:57;;;;;;;7.80;7.10;;;;;;;14.88;91.70;101201.38;4985169;28;20031;-75
2022/08/31 05:54:23;;;;;;;8.20;6.60;;;;;;;14.97;91.60;101198.59;4990125;28;20041;-75
2022/08/31 05:56:48;;;;;;;6.82;6.22;;;;;;;15.04;90.93;101202.06;4990521;28;20035;-75
2022/08/31 05:59:14;;;;;;;6.90;6.22;;;;;;;15.09;90.76;101205.50;4994657;28;20031;-75
2022/08/31 06:01:40;;;;;;;7.10;6.50;;;;;;;15.16;89.67;101199.22;4994241;28;20037;-75
2022/08/31 06:04:20;;;;;;;7.05;6.40;;;;;;;15.19;89.70;101199.16;4992166;28;20031;-75
2022/08/31 06:06:45;;;;;;;7.05;6.35;;;;;;;15.24;89.20;101197.31;4993739;28;20045;-75
2022/08/31 06:09:13;;;;;;;7.55;6.85;;;;;;;15.33;88.67;101202.53;4991075;28;20049;-75
2022/08/31 06:11:40;;;;;;;7.25;6.65;;;;;;;15.40;88.12;101207.72;4993913;28;20038;-75
2022/08/31 06:14:08;;;;;;;6.88;6.28;;;;;;;15.49;88.15;101204.94;4994256;28;20084;-75
2022/08/31 06:16:34;;;;;;;10.43;6.53;;;;;;;15.55;87.74;101204.84;4994232;28;20041;-75
2022/08/31 06:19:03;;;;;;;9.07;6.35;;;;;;;15.61;87.37;101212.72;4993600;28;20519;-75
2022/08/31 06:21:33;;;;;;;8.68;5.85;;;;;;;15.73;86.76;101214.34;4992027;28;20314;-75
2022/08/31 06:23:58;;;;;;;6.32;5.72;;;;;;;15.74;87.04;101214.31;4995296;28;20030;-75
2022/08/31 06:26:32;;;;;;;7.07;6.43;;;;;;;15.88;86.15;101222.06;4994018;28;20031;-75
2022/08/31 06:29:00;;;;;;;8.00;7.30;;;;;;;16.02;85.66;101220.97;4993956;28;20034;-74
2022/08/31 06:31:36;;;;;;;7.30;6.57;;;;;;;16.10;84.75;101224.34;4982715;28;20113;-75
2022/08/31 06:34:05;;;;;;;8.75;7.10;;;;;;;16.15;84.22;101228.69;4993702;28;20039;-75
2022/08/31 06:36:49;;;;;;;8.77;6.88;;;;;;;16.19;84.54;101243.72;4993389;28;20734;-75
2022/08/31 06:39:35;;;;;;;7.63;6.88;;;;;;;16.29;84.05;101240.88;4992541;28;20057;-75
2022/08/31 06:42:15;;;;;;;10.00;8.52;;;;;;;16.39;83.89;101239.78;4993021;28;20045;-75
2022/08/31 06:44:55;;;;;;;8.75;6.78;;;;;;;16.47;83.34;101245.84;4995127;28;20089;-75
2022/08/31 06:47:33;;;;;;;7.25;6.65;;;;;;;16.53;82.90;101250.19;4991801;28;20038;-75
2022/08/31 06:49:58;;;;;;;8.63;6.95;;;;;;;16.62;82.51;101245.56;4993557;28;20046;-75
2022/08/31 06:52:24;;;;;;;6.68;6.18;;;;;;;16.67;81.70;101247.28;4989584;28;20030;-74
2022/08/31 06:55:04;;;;;;;7.93;7.13;;;;;;;16.77;81.86;101252.41;4990342;28;20085;-75
2022/08/31 06:57:53;;;;;;;7.97;7.25;;;;;;;16.78;81.06;101250.63;4983835;28;20038;-76
2022/08/31 07:00:37;;;;;;;8.95;7.38;;;;;;;16.90;80.72;101257.47;4991382;28;20053;-75
2022/08/31 07:03:31;;;;;;;8.02;7.30;;;;;;;16.95;80.62;101253.84;4994391;28;20034;-75
2022/08/31 07:05:58;;;;;;;8.45;7.65;;;;;;;17.09;80.25;101251.72;4993168;28;20065;-75
2022/08/31 07:08:24;;;;;;;7.63;6.93;;;;;;;17.17;80.05;101258.69;4988106;28;20030;-75
2022/08/31 07:10:50;;;;;;;8.05;7.25;;;;;;;17.24;79.24;101263.00;4990812;28;20037;-75
2022/08/31 07:13:16;;;;;;;8.05;7.28;;;;;;;17.34;78.88;101261.84;4973153;28;20504;-75
2022/08/31 07:15:42;;;;;;;8.27;7.45;;;;;;;17.44;78.77;101259.84;4994304;28;20092;-75
2022/08/31 07:18:10;;;;;;;8.93;8.05;;;;;;;17.60;77.90;101260.38;4993128;28;20100;-75
2022/08/31 07:20:35;;;;;;;8.88;8.18;;;;;;;17.69;77.17;101262.84;4989713;28;20660;-75
2022/08/31 07:23:01;;;;;;;7.82;7.05;;;;;;;17.69;77.24;101258.38;4993047;28;20504;-75
2022/08/31 07:25:38;;;;;;;9.05;8.25;;;;;;;17.89;76.29;101257.94;4990305;28;20112;-75
2022/08/31 07:28:04;;;;;;;8.30;7.60;;;;;;;17.99;75.12;101260.34;4992837;28;20034;-75
2022/08/31 07:30:35;;;;;;;7.70;6.90;;;;;;;18.20;75.13;101254.44;4992813;28;20037;-75
2022/08/31 07:33:03;;;;;;;8.90;7.90;;;;;;;18.33;73.99;101255.88;4988610;28;20042;-75
2022/08/31 07:35:30;;;;;;;8.52;7.82;;;;;;;18.54;73.44;101257.09;4990351;28;20042;-75
2022/08/31 07:43:35;;;;;;;8.75;7.75;;;;;;;18.96;71.43;101255.94;4991967;28;20031;-75
2022/08/31 07:46:01;;;;;;;9.25;8.45;;;;;;;19.12;70.91;101262.59;4988336;28;20065;-75
2022/08/31 07:48:27;;;;;;;8.95;8.25;;;;;;;19.23;69.79;101265.84;4991323;28;20524;-75
2022/08/31 07:51:03;;;;;;;7.95;7.30;;;;;;;19.39;69.80;101276.09;4990365;28;20042;-75
2022/08/31 07:53:46;;;;;;;9.45;8.65;;;;;;;19.60;68.81;101270.03;4988961;28;20030;-75
2022/08/31 07:56:29;;;;;;;9.30;8.40;;;;;;;19.79;67.92;101272.16;4989565;28;20042;-76
2022/08/31 07:59:07;;;;;;;8.63;7.93;;;;;;;19.80;66.54;101276.59;4991201;28;20045;-75
2022/08/31 08:01:36;;;;;;;9.10;8.30;;;;;;;19.82;66.94;101274.75;4991082;28;20121;-75
2022/08/31 08:04:05;;;;;;;8.80;8.02;;;;;;;19.94;66.63;101271.66;4990518;28;20527;-75
2022/08/31 08:06:48;;;;;;;8.82;8.02;;;;;;;20.06;66.04;101268.56;4992191;28;20046;-76
2022/08/31 08:09:34;;;;;;;7.80;6.93;;;;;;;20.07;65.84;101264.09;4992183;28;20049;-76
2022/08/31 08:12:09;;;;;;;15.98;10.35;;;;;;;20.10;65.69;101272.03;4992190;28;20034;-76
2022/08/31 08:14:51;;;;;;;9.27;8.40;;;;;;;20.05;65.32;101264.13;4992405;28;20053;-76
2022/08/31 08:17:46;;;;;;;8.90;8.23;;;;;;;20.10;65.75;101270.22;4987625;28;20049;-76
2022/08/31 08:20:13;;;;;;;9.18;8.43;;;;;;;20.16;65.62;101273.63;4992087;28;20074;-76
2022/08/31 08:22:41;;;;;;;12.10;8.90;;;;;;;20.32;65.74;101272.16;4989509;28;20040;-75
2022/08/31 08:25:33;;;;;;;9.38;7.75;;;;;;;20.12;65.40;101276.41;4992833;28;20389;-75
2022/08/31 08:28:16;;;;;;;9.77;7.30;;;;;;;20.05;64.93;101277.53;4993045;28;20050;-76
2022/08/31 08:30:46;;;;;;;8.23;7.53;;;;;;;20.11;65.43;101271.09;4991709;28;20437;-76
2022/08/31 08:33:12;;;;;;;10.18;9.07;;;;;;;20.30;65.24;101271.31;4991525;28;20258;-76
2022/08/31 08:35:39;;;;;;;9.18;8.38;;;;;;;20.45;65.48;101265.41;4987703;28;20508;-76
2022/08/31 08:38:05;;;;;;;9.48;8.02;;;;;;;20.40;63.33;101263.84;4991886;28;20452;-76
2022/08/31 08:40:38;;;;;;;8.27;7.47;;;;;;;20.09;64.10;101276.47;4991629;28;20121;-76
2022/08/31 08:43:04;;;;;;;;;;;;;;;20.04;64.49;101275.78;4991817;28;20034;-76
2022/08/31 08:45:32;;;;;;;8.18;7.25;;;;;;;20.18;64.49;101271.75;5000197;28;19913;-76
2022/08/31 08:47:59;;;;;;;8.98;8.27;;;;;;;20.25;64.52;101276.88;4991163;28;20030;-76
2022/08/31 08:50:27;;;;;;;8.50;7.80;;;;;;;20.38;63.88;101277.28;4991477;28;20051;-76
2022/08/31 08:52:57;;;;;;;10.35;9.35;;;;;;;20.41;63.61;101274.53;4991031;28;20066;-76
2022/08/31 08:55:32;;;;;;;9.32;8.52;;;;;;;20.40;63.97;101275.44;5002380;28;20061;-76
2022/08/31 08:57:58;;;;;;;11.85;9.48;;;;;;;20.46;64.60;101269.88;4992501;28;20042;-76
2022/08/31 09:00:27;;;;;;;10.02;9.25;;;;;;;20.58;63.70;101280.16;4991045;28;20038;-76
2022/08/31 09:03:02;;;;;;;11.75;10.73;;;;;;;20.64;62.46;101278.19;5010111;28;20058;-76
2022/08/31 09:06:23;;;;;;;9.38;8.68;;;;;;;20.84;62.26;101273.00;4987921;28;20050;-76
2022/08/31 09:09:22;;;;;;;9.57;8.57;;;;;;;21.07;61.72;101268.56;4988304;28;20072;-76
2022/08/31 09:12:19;;;;;;;10.70;9.80;;;;;;;21.33;60.52;101268.44;4986229;28;20109;-76
2022/08/31 09:15:06;;;;;;;9.95;9.05;;;;;;;21.51;59.42;101274.03;5008897;23;20042;-78
2022/08/31 09:17:44;;;;;;;8.52;7.80;;;;;;;21.63;59.23;101263.66;4990126;28;20579;-78
2022/08/31 09:20:12;;;;;;;10.30;9.38;;;;;;;21.70;59.36;101264.31;4991929;28;20038;-78
2022/08/31 09:22:51;;;;;;;12.07;8.35;;;;;;;21.77;58.82;101264.91;4988419;28;20548;-77
2022/08/31 09:25:43;;;;;;;10.63;9.18;;;;;;;21.82;58.19;101263.81;4986809;28;20037;-78
2022/08/31 09:28:36;;;;;;;9.98;9.02;;;;;;;21.69;58.38;101257.16;4959991;28;20043;-78
2022/08/31 09:31:02;;;;;;;10.52;9.15;;;;;;;21.67;57.85;101259.06;4981209;28;20038;-78
2022/08/31 09:33:31;;;;;;;10.20;9.43;;;;;;;21.67;57.53;101251.88;4985080;28;20596;-78
2022/08/31 09:36:16;;;;;;;9.85;9.05;;;;;;;21.77;57.74;101244.31;4983356;28;20034;-77
2022/08/31 09:38:45;;;;;;;9.27;8.68;;;;;;;21.73;56.93;101247.19;4982905;28;20519;-77
2022/08/31 09:41:32;;;;;;;8.95;8.32;;;;;;;21.63;56.69;101249.38;4984676;28;20441;-78
2022/08/31 09:44:28;;;;;;;9.52;8.70;;;;;;;21.84;56.74;101243.09;4979858;28;20046;-76
2022/08/31 09:46:59;;;;;;;10.95;10.15;;;;;;;21.95;56.63;101237.28;4974529;28;20106;-76
2022/08/31 09:49:32;;;;;;;9.77;8.98;;;;;;;22.02;55.78;101238.78;4983288;28;20046;-76
2022/08/31 09:52:16;;;;;;;10.10;9.18;;;;;;;21.98;55.30;101247.03;4974346;28;20030;-76
2022/08/31 09:55:12;;;;;;;9.75;8.95;;;;;;;21.91;55.22;101238.38;4979261;28;20117;-78
2022/08/31 09:57:56;;;;;;;10.15;9.45;;;;;;;21.76;55.23;101234.50;4981051;28;20032;-79
2022/08/31 10:00:31;;;;;;;10.50;9.77;;;;;;;21.74;55.55;101244.44;4977306;28;20065;-79
2022/08/31 10:03:07;;;;;;;10.07;9.27;;;;;;;21.76;54.55;101245.25;4981890;28;20043;-78
2022/08/31 10:05:39;;;;;;;10.93;10.02;;;;;;;21.89;54.65;101242.91;4980555;28;20041;-78
2022/08/31 10:08:29;;;;;;;10.98;10.27;;;;;;;22.03;52.39;101239.66;4980713;28;20039;-79
2022/08/31 10:10:57;;;;;;;10.32;9.50;;;;;;;22.17;52.20;101231.00;4979573;28;20666;-79
2022/08/31 10:13:38;;;;;;;10.65;9.82;;;;;;;22.22;50.90;101237.09;4979829;28;20042;-79
2022/08/31 10:16:24;;;;;;;10.70;9.70;;;;;;;22.41;50.91;101234.47;4981650;28;20410;-79
2022/08/31 10:19:05;;;;;;;11.02;10.00;;;;;;;22.61;51.26;101231.75;4981602;28;20070;-80
2022/08/31 10:21:39;;;;;;;11.18;10.38;;;;;;;22.91;50.98;101228.59;4979099;28;20082;-80
2022/08/31 10:24:43;;;;;;;10.02;9.23;;;;;;;23.02;50.18;101230.81;4973401;28;20045;-80
2022/08/31 10:27:37;;;;;;;10.63;9.93;;;;;;;23.07;49.59;101226.97;4941500;28;20046;-78
2022/08/31 10:30:29;;;;;;;9.63;8.75;;;;;;;23.16;50.10;101237.31;4980955;28;20049;-77
2022/08/31 10:33:04;;;;;;;;;;;;;;;23.38;50.31;101229.06;4977280;28;20034;-77
2022/08/31 10:35:54;;;;;;;10.93;9.27;;;;;;;23.53;49.80;101230.13;4979804;28;20380;-77
2022/08/31 10:38:43;;;;;;;10.52;9.82;;;;;;;23.62;48.95;101224.28;4976016;28;20038;-78
2022/08/31 10:41:22;;;;;;;9.63;8.75;;;;;;;23.53;49.34;101227.44;4979755;28;20049;-77
2022/08/31 10:44:23;;;;;;;9.48;8.77;;;;;;;23.10;48.99;101232.19;4976453;28;20037;-77
2022/08/31 10:46:53;;;;;;;11.40;10.60;;;;;;;23.15;49.49;101230.16;4975876;28;20023;-77
2022/08/31 10:49:20;;;;;;;11.93;10.80;;;;;;;23.41;48.69;101225.34;4982235;28;20042;-78
2022/08/31 10:52:02;;;;;;;11.90;11.05;;;;;;;23.79;48.50;101230.72;4977137;28;20031;-76
2022/08/31 10:54:49;;;;;;;11.80;10.80;;;;;;;24.23;47.19;101216.75;4983766;28;20042;-77
2022/08/31 10:57:40;;;;;;;11.20;10.40;;;;;;;24.57;46.34;101218.56;4981701;28;20043;-77
2022/08/31 11:00:40;;;;;;;15.43;14.45;;;;;;;24.74;44.47;101214.09;4982116;28;20066;-77
2022/08/31 11:03:23;;;;;;;11.18;10.48;;;;;;;24.77;44.72;101216.63;4983047;28;20039;-77
2022/08/31 11:05:59;;;;;;;10.60;9.65;;;;;;;25.06;45.53;101207.75;4981128;28;20374;-78
2022/08/31 11:08:53;;;;;;;11.98;11.20;;;;;;;25.29;45.11;101214.59;4986452;28;20042;-77
2022/08/31 11:11:34;;;;;;;10.13;9.32;;;;;;;25.75;44.24;101206.53;4980241;28;20054;-77
2022/08/31 11:14:20;;;;;;;10.45;9.65;;;;;;;25.67;41.88;101203.41;4981815;28;20046;-78
2022/08/31 11:17:05;;;;;;;13.45;12.70;;;;;;;25.07;42.52;101208.63;4984555;28;20137;-77
2022/08/31 11:20:05;;;;;;;10.95;10.20;;;;;;;24.51;42.94;101209.94;4984759;28;20050;-77
2022/08/31 11:23:05;;;;;;;9.10;8.48;;;;;;;24.22;43.83;101207.78;4982522;28;20038;-77
2022/08/31 11:25:57;;;;;;;9.88;9.25;;;;;;;24.29;44.35;101205.66;4981287;28;20043;-78
2022/08/31 11:28:33;;;;;;;9.07;8.48;;;;;;;24.23;44.65;101205.94;4981211;28;20133;-77
2022/08/31 11:31:19;;;;;;;9.50;8.80;;;;;;;24.29;45.24;101205.66;4973952;28;20050;-76
2022/08/31 11:33:50;;;;;;;11.02;9.75;;;;;;;24.21;45.06;101197.09;4981889;28;20509;-76
2022/08/31 11:36:43;;;;;;;9.07;8.38;;;;;;;24.03;45.18;101207.88;4977742;28;20086;-77
2022/08/31 11:39:08;;;;;;;14.18;13.18;;;;;;;23.95;45.49;101203.84;4983295;28;20035;-76
2022/08/31 11:41:35;;;;;;;10.85;10.15;;;;;;;23.58;46.31;101203.84;4982429;28;20037;-77
2022/08/31 11:44:03;;;;;;;11.95;11.15;;;;;;;23.26;47.34;101201.84;4982341;28;20138;-77
2022/08/31 11:46:38;;;;;;;14.32;13.43;;;;;;;22.94;48.04;101204.22;4982839;28;20048;-77
2022/08/31 11:49:04;;;;;;;11.40;10.55;;;;;;;22.93;47.46;101203.34;4967433;28;20497;-76
2022/08/31 11:51:41;;;;;;;10.30;9.60;;;;;;;22.96;47.16;101208.63;4982178;28;20046;-77
2022/08/31 11:54:35;;;;;;;12.60;11.90;;;;;;;22.88;46.87;101207.22;4979543;28;20707;-77
2022/08/31 11:57:02;;;;;;;14.02;13.23;;;;;;;22.80;47.78;101198.63;4980404;28;20031;-76
2022/08/31 11:59:34;;;;;;;14.38;13.23;;;;;;;22.76;48.35;101196.06;4982944;28;20085;-76